Airfield :
LOGIN :

Register | Disclaimer

   EN    FR    IT 

 










Legend :    VFR   Marginal VFR   IFR   Intensive IFR   Very Intensive IFR
Visi :
Ceiling :
>= 8 km
>= 3000ft
5 to 8 km
1000 to 3000 ft
1500m to 5 km
500 to 1000 ft
800 to 1500m
200 to 500 ft
< 800m
< 200 ft
Symbols :   Thunderstorms  Fog  Heavy snow  Heavy precipitations  Wind > 20 kt
SIGMETs :     Misc.  Thunderstorms  Icing  Turbulence  Mountain Waves  Volcanic Ashes







- Airport Elevation : 157 ft
- IATA code : SXF


EDDB - Berlin Schönefeld

CURRENT METAR :
  • 241320Z 06007KT 5000 BR BKN005 OVC030 15/15 Q1023 BECMG BKN015

EXPIRED METARs :
  • 241250Z 05007KT 3500 -DZ BR BKN004 15/14 Q1023 BECMG 6000 BKN010
  • 241220Z 06007KT 3000 -DZ BR BKN004 15/14 Q1022 TEMPO 2000 -DZ
  • 241150Z 06008KT 3300 -DZ BR BKN004 15/14 Q1022 TEMPO 2000 -DZ
  • 241120Z 07008KT 3500 -DZ BR BKN004 15/14 Q1022 BECMG 5000 BKN006

TAF TAF EDDB
Valid from the 24 at 12:00 until the 25 at 12:00 UTC


241100Z 2412/2512 06005KT 9999 BKN004
BECMG 2412/2415 BKN015
TEMPO 2421/2502 BKN012
BECMG 2502/2505 4000 -RA BKN005
BECMG 2506/2508 9999 BKN010
BECMG 2510/2512 BKN015
No reported NOTAMs for that airfield.



MET'MAP, your aeronautical weather chart ! - Copyright ORBIFLY December 2007 - Disclaimer

ORBIFLY MET'MAP TEAM :

Programming & Development : Alexandra Zaïnal
Concept & Development : Baudouin d'Aumeries
Co-Development & Prog : Marc-Olivier Méhu
Technical & hardware support : Manuel Goepfert

Contact : metmap@orbifly.com




SOURCES & CREDITS :

   NOAA